createdAt,value
2018-03-01T00:00:07.555Z,63.41
2018-03-01T00:01:07.530Z,63.13
2018-03-01T00:02:07.628Z,62.94
2018-03-01T00:03:07.418Z,63.69
2018-03-01T00:04:07.384Z,63.32
2018-03-01T00:05:07.347Z,63.41
2018-03-01T00:06:07.403Z,64.35
2018-03-01T00:07:07.267Z,63.79
2018-03-01T00:08:07.232Z,63.41
2018-03-01T00:09:07.196Z,63.60
2018-03-01T00:10:07.157Z,63.32
2018-03-01T00:11:07.163Z,63.41
2018-03-01T00:12:07.132Z,63.41
2018-03-01T00:13:07.089Z,63.50
2018-03-01T00:14:07.009Z,63.60
2018-03-01T00:15:06.988Z,63.88
2018-03-01T00:16:07.758Z,64.07
2018-03-01T00:17:06.904Z,64.26
2018-03-01T00:18:06.966Z,64.07
2018-03-01T00:19:06.824Z,64.16
2018-03-01T00:20:06.792Z,64.16
2018-03-01T00:21:06.793Z,64.16
2018-03-01T00:22:06.726Z,64.16
2018-03-01T00:23:06.678Z,63.50
2018-03-01T00:24:06.644Z,64.07
2018-03-01T00:25:06.609Z,63.88
2018-03-01T00:26:06.901Z,63.98
2018-03-01T00:27:06.533Z,64.07
2018-03-01T00:28:06.498Z,64.16
2018-03-01T00:29:06.458Z,63.50
2018-03-01T00:30:06.435Z,63.69
2018-03-01T00:31:06.429Z,63.98
2018-03-01T00:32:06.353Z,64.07
2018-03-01T00:33:06.312Z,64.07
2018-03-01T00:34:06.272Z,64.07
2018-03-01T00:35:06.278Z,64.26
2018-03-01T00:36:06.199Z,64.07
2018-03-01T00:37:06.166Z,63.88
2018-03-01T00:38:06.131Z,64.16
2018-03-01T00:39:06.091Z,64.16
2018-03-01T00:40:06.099Z,63.79
2018-03-01T00:41:06.013Z,63.98
2018-03-01T00:42:05.979Z,64.07
2018-03-01T00:43:05.982Z,64.07
2018-03-01T00:44:05.906Z,63.79
2018-03-01T00:45:05.865Z,64.26
2018-03-01T00:46:05.834Z,64.16
2018-03-01T00:47:05.795Z,64.26
2018-03-01T00:48:05.793Z,64.26
2018-03-01T00:49:05.741Z,64.26
2018-03-01T00:50:05.699Z,63.98
2018-03-01T00:51:05.658Z,63.98
2018-03-01T00:52:05.607Z,63.60
2018-03-01T00:53:05.618Z,63.88
2018-03-01T00:54:05.535Z,64.26
2018-03-01T00:55:05.496Z,63.98
2018-03-01T00:56:05.459Z,63.79
2018-03-01T00:57:05.429Z,63.88
2018-03-01T00:58:05.435Z,63.98
2018-03-01T00:59:05.347Z,63.79
2018-03-01T01:00:05.355Z,63.69
2018-03-01T01:01:05.273Z,64.26
2018-03-01T01:02:05.244Z,63.88
2018-03-01T01:03:05.202Z,63.98
2018-03-01T01:04:05.200Z,63.98
2018-03-01T01:05:05.130Z,64.16
2018-03-01T01:06:05.089Z,64.26
2018-03-01T01:07:05.056Z,64.16
2018-03-01T01:08:05.016Z,63.98
2018-03-01T01:09:05.018Z,64.16
2018-03-01T01:10:04.982Z,64.83
2018-03-01T01:11:04.904Z,64.83
2018-03-01T01:12:04.904Z,64.83
2018-03-01T01:13:04.831Z,64.54
2018-03-01T01:14:04.850Z,64.73
2018-03-01T01:15:04.757Z,64.73
2018-03-01T01:16:04.720Z,64.64
2018-03-01T01:17:04.727Z,64.45
2018-03-01T01:18:04.645Z,64.45
2018-03-01T01:19:04.619Z,64.26
2018-03-01T01:20:04.618Z,64.35
2018-03-01T01:21:04.530Z,64.64
2018-03-01T01:22:04.553Z,64.26
2018-03-01T01:23:04.460Z,64.35
2018-03-01T01:24:04.420Z,64.73
2018-03-01T01:25:04.452Z,64.73
2018-03-01T01:26:04.374Z,63.98
2018-03-01T01:27:04.313Z,64.73
2018-03-01T01:28:04.271Z,64.07
2018-03-01T01:29:04.236Z,64.16
2018-03-01T01:30:04.239Z,64.16
2018-03-01T01:31:04.229Z,64.07
2018-03-01T01:32:04.129Z,64.16
2018-03-01T01:33:04.148Z,64.07
2018-03-01T01:34:04.053Z,64.83
2018-03-01T01:35:04.012Z,64.54
2018-03-01T01:36:04.027Z,64.45
2018-03-01T01:37:03.939Z,64.64
2018-03-01T01:38:03.901Z,64.64
2018-03-01T01:39:03.872Z,64.64
2018-03-01T01:40:03.827Z,64.73
2018-03-01T01:41:03.840Z,64.73
2018-03-01T01:42:03.751Z,64.54
2018-03-01T01:43:03.712Z,65.30
2018-03-01T01:44:03.674Z,65.11
2018-03-01T01:45:03.649Z,64.54
2018-03-01T01:46:03.645Z,64.92
2018-03-01T01:47:03.570Z,65.30
2018-03-01T01:48:03.578Z,65.01
2018-03-01T01:49:03.494Z,65.20
2018-03-01T01:50:03.472Z,65.20
2018-03-01T01:51:03.413Z,65.20
2018-03-01T01:52:03.419Z,65.48
2018-03-01T01:53:03.339Z,65.48
2018-03-01T01:54:03.303Z,65.01
2018-03-01T01:55:03.268Z,65.30
2018-03-01T01:56:03.278Z,65.11
2018-03-01T01:57:03.239Z,65.20
2018-03-01T01:58:03.177Z,65.01
2018-03-01T01:59:03.195Z,65.48
2018-03-01T02:00:03.082Z,65.48
2018-03-01T02:01:03.060Z,65.39
2018-03-01T02:02:03.063Z,65.58
2018-03-01T02:03:02.975Z,65.58
2018-03-01T02:04:02.926Z,65.39
2018-03-01T02:05:02.891Z,65.77
2018-03-01T02:06:02.912Z,65.95
2018-03-01T02:07:02.816Z,66.33
2018-03-01T02:08:02.802Z,66.14
2018-03-01T02:09:02.908Z,66.05
2018-03-01T02:10:02.717Z,66.05
2018-03-01T02:11:02.669Z,66.52
2018-03-01T02:12:02.631Z,66.86
2018-03-01T02:13:02.597Z,66.71
2018-03-01T02:14:02.595Z,66.80
2018-03-01T02:15:02.521Z,66.77
2018-03-01T02:16:02.786Z,67.24
2018-03-01T02:17:02.489Z,66.61
2018-03-01T02:18:02.405Z,66.67
2018-03-01T02:19:02.388Z,67.05
2018-03-01T02:20:02.371Z,66.99
2018-03-01T02:21:02.297Z,66.77
2018-03-01T02:22:02.301Z,66.80
2018-03-01T02:23:02.258Z,67.46
2018-03-01T02:24:02.185Z,67.33
2018-03-01T02:25:02.147Z,67.36
2018-03-01T02:26:02.106Z,67.27
2018-03-01T02:27:02.124Z,67.18
2018-03-01T02:28:02.033Z,66.99
2018-03-01T02:29:01.999Z,67.27
2018-03-01T02:30:01.968Z,67.24
2018-03-01T02:31:01.942Z,67.33
2018-03-01T02:32:01.939Z,66.96
2018-03-01T02:33:01.846Z,67.43
2018-03-01T02:34:01.811Z,67.05
2018-03-01T02:35:01.771Z,67.24
2018-03-01T02:36:01.735Z,67.14
2018-03-01T02:37:01.746Z,67.43
2018-03-01T02:38:01.670Z,67.61
2018-03-01T02:39:01.620Z,67.90
2018-03-01T02:40:01.583Z,67.99
2018-03-01T02:41:01.550Z,67.80
2018-03-01T02:42:01.555Z,67.80
2018-03-01T02:43:01.474Z,67.52
2018-03-01T02:44:01.484Z,68.08
2018-03-01T02:45:01.400Z,67.99
2018-03-01T02:46:01.367Z,67.90
2018-03-01T02:47:01.362Z,67.99
2018-03-01T02:48:01.338Z,67.80
2018-03-01T02:49:01.246Z,67.90
2018-03-01T02:50:01.213Z,67.71
2018-03-01T02:51:01.171Z,67.43
2018-03-01T02:52:01.143Z,68.27
2018-03-01T02:53:01.133Z,68.08
2018-03-01T02:54:01.060Z,67.61
2018-03-01T02:55:01.018Z,67.52
2018-03-01T02:56:00.978Z,67.43
2018-03-01T02:57:00.996Z,67.61
2018-03-01T02:58:01.745Z,67.71
2018-03-01T02:59:00.865Z,67.90
2018-03-01T03:00:00.837Z,67.52
2018-03-01T03:01:00.797Z,67.99
2018-03-01T03:02:00.811Z,67.90
2018-03-01T03:03:00.716Z,67.99
2018-03-01T03:04:00.682Z,68.08
2018-03-01T03:05:00.641Z,68.08
2018-03-01T03:06:00.603Z,68.27
2018-03-01T03:07:02.388Z,68.18
2018-03-01T03:08:00.528Z,68.18
2018-03-01T03:09:00.495Z,68.18
2018-03-01T03:10:01.342Z,68.18
2018-03-01T03:11:00.414Z,68.18
2018-03-01T03:12:00.415Z,68.08
2018-03-01T03:13:00.342Z,68.18
2018-03-01T03:14:00.304Z,68.18
2018-03-01T03:15:00.318Z,68.08
2018-03-01T03:16:00.262Z,68.18
2018-03-01T03:17:00.193Z,68.65
2018-03-01T03:18:00.402Z,68.08
2018-03-01T03:19:00.233Z,68.37
2018-03-01T03:20:00.119Z,68.65
2018-03-01T03:21:00.043Z,68.46
2018-03-01T03:22:00.013Z,68.18
2018-03-01T03:22:59.970Z,68.08
2018-03-01T03:24:00.746Z,68.08
2018-03-01T03:25:00.397Z,68.46
2018-03-01T03:26:00.021Z,67.99
2018-03-01T03:26:59.816Z,68.55
2018-03-01T03:27:59.782Z,68.27
2018-03-01T03:28:59.736Z,68.65
2018-03-01T03:29:59.716Z,68.46
2018-03-01T03:30:59.708Z,68.27
2018-03-01T03:32:00.346Z,68.93
2018-03-01T03:32:59.585Z,69.12
2018-03-01T03:33:59.554Z,68.93
2018-03-01T03:34:59.513Z,68.93
2018-03-01T03:35:59.978Z,68.93
2018-03-01T03:36:59.436Z,68.84
2018-03-01T03:37:59.413Z,68.93
2018-03-01T03:38:59.420Z,68.84
2018-03-01T03:39:59.322Z,69.50
2018-03-01T03:40:59.333Z,68.93
2018-03-01T03:41:59.249Z,69.12
2018-03-01T03:42:59.206Z,68.74
2018-03-01T03:43:59.400Z,68.93
2018-03-01T03:44:59.171Z,68.93
2018-03-01T03:45:59.136Z,68.84
2018-03-01T03:46:59.067Z,68.74
2018-03-01T03:47:59.077Z,69.21
2018-03-01T03:49:01.835Z,69.21
2018-03-01T03:49:58.989Z,69.40
2018-03-01T03:50:58.995Z,69.68
2018-03-01T03:51:58.868Z,69.50
2018-03-01T03:52:58.831Z,69.50
2018-03-01T03:53:58.801Z,69.50
2018-03-01T03:54:58.755Z,69.59
2018-03-01T03:55:58.890Z,69.78
2018-03-01T03:56:58.681Z,69.68
2018-03-01T03:57:58.643Z,69.68
2018-03-01T03:58:58.603Z,69.68
2018-03-01T04:00:00.389Z,69.78
2018-03-01T04:00:58.530Z,70.06
2018-03-01T04:01:58.493Z,70.06
2018-03-01T04:02:58.457Z,70.06
2018-03-01T04:03:59.338Z,70.25
2018-03-01T04:04:58.383Z,70.06
2018-03-01T04:05:58.380Z,70.16
2018-03-01T04:06:58.303Z,70.06
2018-03-01T04:07:58.272Z,70.06
2018-03-01T04:08:58.839Z,70.34
2018-03-01T04:09:58.190Z,70.06
2018-03-01T04:10:58.210Z,70.16
2018-03-01T04:11:58.120Z,70.44
2018-03-01T04:12:58.841Z,70.16
2018-03-01T04:13:58.042Z,70.16
2018-03-01T04:14:57.999Z,70.16
2018-03-01T04:15:58.017Z,70.16
2018-03-01T04:16:58.837Z,70.16
2018-03-01T04:17:57.897Z,70.82
2018-03-01T04:18:57.850Z,70.44
2018-03-01T04:19:57.818Z,70.82
2018-03-01T04:20:57.823Z,70.53
2018-03-01T04:21:57.889Z,70.72
2018-03-01T04:22:57.724Z,70.34
2018-03-01T04:23:57.663Z,70.53
2018-03-01T04:24:57.626Z,70.44
2018-03-01T04:25:57.582Z,70.63
2018-03-01T04:26:57.885Z,71.29
2018-03-01T04:27:57.514Z,71.00
2018-03-01T04:28:57.473Z,71.00
2018-03-01T04:29:58.342Z,71.00
2018-03-01T04:30:57.393Z,71.19
2018-03-01T04:31:57.411Z,71.19
2018-03-01T04:32:57.322Z,71.10
2018-03-01T04:33:57.310Z,71.19
2018-03-01T04:34:57.841Z,71.19
2018-03-01T04:35:57.251Z,71.48
2018-03-01T04:36:57.230Z,71.85
2018-03-01T04:37:57.833Z,71.76
2018-03-01T04:38:57.093Z,71.66
2018-03-01T04:39:57.052Z,72.14
2018-03-01T04:40:57.012Z,72.23
2018-03-01T04:41:57.412Z,72.04
2018-03-01T04:42:56.952Z,72.70
2018-03-01T04:43:56.903Z,72.70
2018-03-01T04:44:56.864Z,72.89
2018-03-01T04:45:56.846Z,73.08
2018-03-01T04:46:56.919Z,72.99
2018-03-01T04:47:56.792Z,72.89
2018-03-01T04:48:56.717Z,73.27
2018-03-01T04:49:56.675Z,73.08
2018-03-01T04:50:57.334Z,72.89
2018-03-01T04:51:56.601Z,73.17
2018-03-01T04:52:56.610Z,73.08
2018-03-01T04:53:56.519Z,73.36
2018-03-01T04:54:56.486Z,73.65
2018-03-01T04:55:57.335Z,73.46
2018-03-01T04:56:56.417Z,73.46
2018-03-01T04:57:56.426Z,73.65
2018-03-01T04:58:56.335Z,73.83
2018-03-01T04:59:56.306Z,74.11
2018-03-01T05:00:56.836Z,73.65
2018-03-01T05:01:56.220Z,73.93
2018-03-01T05:02:56.233Z,73.93
2018-03-01T05:03:56.189Z,73.65
2018-03-01T05:04:56.104Z,74.11
2018-03-01T05:05:56.067Z,73.65
2018-03-01T05:06:56.031Z,74.11
2018-03-01T05:07:55.988Z,73.93
2018-03-01T05:08:55.995Z,73.83
2018-03-01T05:09:55.932Z,74.68
2018-03-01T05:10:55.908Z,74.68
2018-03-01T05:11:55.877Z,73.93
2018-03-01T05:12:55.796Z,74.11
2018-03-01T05:13:55.779Z,73.93
2018-03-01T05:14:56.336Z,74.68
2018-03-01T05:15:55.784Z,74.58
2018-03-01T05:16:55.651Z,74.58
2018-03-01T05:17:55.609Z,74.68
2018-03-01T05:18:55.894Z,74.58
2018-03-01T05:19:56.297Z,74.40
2018-03-01T05:20:55.501Z,74.77
2018-03-01T05:21:56.338Z,74.49
2018-03-01T05:22:55.426Z,74.87
2018-03-01T05:23:55.428Z,75.15
2018-03-01T05:24:56.331Z,74.77
2018-03-01T05:25:55.308Z,75.15
2018-03-01T05:26:55.271Z,75.34
2018-03-01T05:27:55.226Z,75.52
2018-03-01T05:28:55.390Z,75.52
2018-03-01T05:29:55.198Z,75.52
2018-03-01T05:30:55.118Z,75.24
2018-03-01T05:31:55.837Z,75.52
2018-03-01T05:32:55.033Z,75.34
2018-03-01T05:33:55.005Z,75.43
2018-03-01T05:34:55.022Z,75.52
2018-03-01T05:35:55.834Z,75.24
2018-03-01T05:36:54.887Z,75.34
2018-03-01T05:37:54.856Z,75.24
2018-03-01T05:38:55.335Z,75.81
2018-03-01T05:39:54.815Z,75.43
2018-03-01T05:40:54.737Z,75.34
2018-03-01T05:41:54.700Z,75.52
2018-03-01T05:42:55.342Z,75.62
2018-03-01T05:43:54.622Z,75.81
2018-03-01T05:44:54.631Z,75.81
2018-03-01T05:45:54.542Z,75.90
2018-03-01T05:46:55.378Z,75.90
2018-03-01T05:47:54.494Z,75.99
2018-03-01T05:48:54.430Z,75.90
2018-03-01T05:49:54.906Z,75.90
2018-03-01T05:50:54.351Z,75.90
2018-03-01T05:51:54.313Z,75.81
2018-03-01T05:52:54.834Z,76.18
2018-03-01T05:53:54.249Z,75.99
2018-03-01T05:54:54.240Z,76.09
2018-03-01T05:55:55.849Z,76.65
2018-03-01T05:56:54.129Z,76.09
2018-03-01T05:57:56.832Z,76.28
2018-03-01T05:58:54.737Z,76.09
2018-03-01T05:59:54.403Z,76.37
2018-03-01T06:00:54.835Z,76.37
2018-03-01T06:01:54.737Z,76.56
2018-03-01T06:02:54.738Z,76.28
2018-03-01T06:03:54.831Z,76.09
2018-03-01T06:04:53.916Z,76.28
2018-03-01T06:05:54.334Z,75.99
2018-03-01T06:06:55.737Z,76.28
2018-03-01T06:07:53.700Z,76.46
2018-03-01T06:08:53.670Z,76.09
2018-03-01T06:09:54.334Z,76.56
2018-03-01T06:10:53.589Z,76.28
2018-03-01T06:11:53.602Z,76.18
2018-03-01T06:12:53.507Z,76.28
2018-03-01T06:13:54.332Z,76.75
2018-03-01T06:14:53.474Z,76.09
2018-03-01T06:15:53.389Z,76.18
2018-03-01T06:16:53.389Z,76.18
2018-03-01T06:17:55.835Z,76.65
2018-03-01T06:18:53.335Z,76.84
2018-03-01T06:19:53.244Z,76.18
2018-03-01T06:20:53.198Z,75.99
2018-03-01T06:21:53.837Z,76.18
2018-03-01T06:22:53.179Z,75.99
2018-03-01T06:23:54.799Z,76.28
2018-03-01T06:24:53.046Z,76.18
2018-03-01T06:25:53.026Z,76.28
2018-03-01T06:26:53.952Z,76.09
2018-03-01T06:27:52.975Z,76.56
2018-03-01T06:28:52.891Z,76.46
2018-03-01T06:29:52.856Z,75.81
2018-03-01T06:30:52.854Z,76.09
2018-03-01T06:31:53.329Z,76.28
2018-03-01T06:32:52.796Z,75.99
2018-03-01T06:33:52.719Z,75.71
2018-03-01T06:34:52.671Z,75.43
2018-03-01T06:35:53.342Z,75.43
2018-03-01T06:36:52.594Z,75.15
2018-03-01T06:37:52.594Z,75.15
2018-03-01T06:38:53.327Z,75.34
2018-03-01T06:39:52.516Z,75.24
2018-03-01T06:40:52.438Z,75.34
2018-03-01T06:41:53.329Z,75.34
2018-03-01T06:42:52.357Z,75.34
2018-03-01T06:43:52.373Z,75.71
2018-03-01T06:44:52.837Z,75.15
2018-03-01T06:45:52.248Z,75.05
2018-03-01T06:46:52.207Z,75.24
2018-03-01T06:47:52.828Z,75.05
2018-03-01T06:48:52.172Z,74.77
2018-03-01T06:49:52.093Z,74.68
2018-03-01T06:50:52.060Z,74.77
2018-03-01T06:51:52.060Z,74.58
2018-03-01T06:52:52.023Z,74.02
2018-03-01T06:53:51.940Z,73.93
2018-03-01T06:54:52.828Z,74.02
2018-03-01T06:55:51.866Z,73.74
2018-03-01T06:56:51.824Z,73.83
2018-03-01T06:57:51.844Z,73.74
2018-03-01T06:58:51.794Z,73.83
2018-03-01T06:59:52.331Z,73.93
2018-03-01T07:00:51.679Z,73.83
2018-03-01T07:01:51.636Z,73.74
2018-03-01T07:02:51.635Z,74.02
2018-03-01T07:03:52.329Z,73.65
2018-03-01T07:04:51.560Z,74.02
2018-03-01T07:05:51.482Z,73.65
2018-03-01T07:06:51.512Z,73.65
2018-03-01T07:07:52.329Z,73.08
2018-03-01T07:08:51.416Z,73.27
2018-03-01T07:09:51.328Z,73.17
2018-03-01T07:10:51.829Z,73.08
2018-03-01T07:11:51.257Z,73.27
2018-03-01T07:12:51.217Z,73.27
2018-03-01T07:13:51.253Z,73.17
2018-03-01T07:14:51.141Z,73.27
2018-03-01T07:15:51.830Z,73.17
2018-03-01T07:16:51.069Z,72.99
2018-03-01T07:17:51.076Z,72.42
2018-03-01T07:18:53.840Z,72.61
2018-03-01T07:19:50.952Z,71.85
2018-03-01T07:20:50.923Z,71.95
2018-03-01T07:21:51.387Z,71.66
2018-03-01T07:22:50.841Z,71.57
2018-03-01T07:23:50.807Z,71.48
2018-03-01T07:24:50.815Z,71.76
2018-03-01T07:25:50.731Z,71.57
2018-03-01T07:26:50.689Z,71.66
2018-03-01T07:27:51.380Z,71.48
2018-03-01T07:28:50.612Z,71.57
2018-03-01T07:29:50.895Z,71.76
2018-03-01T07:30:50.532Z,71.57
2018-03-01T07:31:51.334Z,71.76
2018-03-01T07:32:50.463Z,71.76
2018-03-01T07:33:51.330Z,70.91
2018-03-01T07:34:50.433Z,70.63
2018-03-01T07:35:51.330Z,70.25
2018-03-01T07:36:50.310Z,69.97
2018-03-01T07:37:50.274Z,70.25
2018-03-01T07:38:50.373Z,70.34
2018-03-01T07:39:50.200Z,69.68
2018-03-01T07:40:50.384Z,69.50
2018-03-01T07:41:50.120Z,69.31
2018-03-01T07:42:50.090Z,69.16
2018-03-01T07:43:50.852Z,69.02
2018-03-01T07:44:50.011Z,68.50
2018-03-01T07:45:50.383Z,68.78
2018-03-01T07:46:49.979Z,68.31
2018-03-01T07:47:50.840Z,68.21
2018-03-01T07:48:49.862Z,67.65
2018-03-01T07:49:50.329Z,67.65
2018-03-01T07:50:49.795Z,67.46
2018-03-01T07:51:49.801Z,67.18
2018-03-01T07:52:50.328Z,67.08
2018-03-01T07:53:49.682Z,66.33
2018-03-01T07:54:50.327Z,65.95
2018-03-01T07:55:49.606Z,66.14
2018-03-01T07:56:49.886Z,65.67
2018-03-01T07:57:49.531Z,65.30
2018-03-01T07:58:50.341Z,64.92
2018-03-01T07:59:49.460Z,64.45
2018-03-01T08:00:49.464Z,64.07
2018-03-01T08:01:49.876Z,64.26
2018-03-01T08:02:49.352Z,63.98
2018-03-01T08:03:49.828Z,63.98
2018-03-01T08:04:49.277Z,64.07
2018-03-01T08:05:49.827Z,63.22
2018-03-01T08:06:49.351Z,63.88
2018-03-01T08:07:49.825Z,63.32
2018-03-01T08:08:49.132Z,63.50
2018-03-01T08:09:49.829Z,62.40
2018-03-01T08:10:49.072Z,62.03
2018-03-01T08:11:49.391Z,61.93
2018-03-01T08:12:48.991Z,62.03
2018-03-01T08:13:49.830Z,61.36
2018-03-01T08:14:48.914Z,61.36
2018-03-01T08:15:49.830Z,60.89
2018-03-01T08:16:48.934Z,60.61
2018-03-01T08:17:48.812Z,60.05
2018-03-01T08:18:49.333Z,59.39
2018-03-01T08:19:48.743Z,58.16
2018-03-01T08:20:49.331Z,57.41
2018-03-01T08:21:48.754Z,57.41
2018-03-01T08:22:49.330Z,56.84
2018-03-01T08:23:48.609Z,56.37
2018-03-01T08:24:49.328Z,56.27
2018-03-01T08:25:48.543Z,56.21
2018-03-01T08:26:48.880Z,55.55
2018-03-01T08:27:48.480Z,55.65
2018-03-01T08:28:49.328Z,55.55
2018-03-01T08:29:48.413Z,54.89
2018-03-01T08:30:49.341Z,54.80
2018-03-01T08:31:48.404Z,54.51
2018-03-01T08:32:48.829Z,54.33
2018-03-01T08:33:48.295Z,54.33
2018-03-01T08:34:48.265Z,54.89
2018-03-01T08:35:48.836Z,54.14
2018-03-01T08:36:48.243Z,53.19
2018-03-01T08:37:48.175Z,52.81
2018-03-01T08:38:48.198Z,52.34
2018-03-01T08:39:48.827Z,52.34
2018-03-01T08:40:48.091Z,51.59
2018-03-01T08:41:48.063Z,51.52
2018-03-01T08:42:48.052Z,50.95
2018-03-01T08:43:48.050Z,51.05
2018-03-01T08:44:47.991Z,50.86
2018-03-01T08:45:47.961Z,51.05
2018-03-01T08:46:47.935Z,50.48
2018-03-01T08:47:47.907Z,50.10
2018-03-01T08:48:48.380Z,49.07
2018-03-01T08:49:47.863Z,48.97
2018-03-01T08:50:47.829Z,49.07
2018-03-01T08:51:47.805Z,48.41
2018-03-01T08:52:47.826Z,48.69
2018-03-01T08:53:47.832Z,48.41
2018-03-01T08:54:47.784Z,48.88
2018-03-01T08:55:47.706Z,49.07
2018-03-01T08:56:47.682Z,48.60
2018-03-01T08:57:47.663Z,48.13
2018-03-01T08:58:47.679Z,48.13
2018-03-01T08:59:48.332Z,47.46
2018-03-01T09:00:47.581Z,47.56
2018-03-01T09:01:47.565Z,47.37
2018-03-01T09:02:47.536Z,47.27
2018-03-01T09:03:47.550Z,47.65
2018-03-01T09:04:48.330Z,47.56
2018-03-01T09:05:47.508Z,47.18
2018-03-01T09:06:47.432Z,47.56
2018-03-01T09:07:47.459Z,47.18
2018-03-01T09:08:47.383Z,45.86
2018-03-01T09:09:48.336Z,45.10
2018-03-01T09:10:47.377Z,44.65
2018-03-01T09:11:47.363Z,44.56
2018-03-01T09:12:47.290Z,44.26
2018-03-01T09:13:47.831Z,43.88
2018-03-01T09:14:47.251Z,43.78
2018-03-01T09:15:47.214Z,43.22
2018-03-01T09:16:47.230Z,43.78
2018-03-01T09:17:47.166Z,44.45
2018-03-01T09:18:47.145Z,44.16
2018-03-01T09:19:47.117Z,44.35
2018-03-01T09:20:47.139Z,44.45
2018-03-01T09:21:47.067Z,44.45
2018-03-01T09:22:47.044Z,44.35
2018-03-01T09:23:47.016Z,44.45
2018-03-01T09:24:47.092Z,44.37
2018-03-01T09:25:46.971Z,43.99
2018-03-01T09:26:46.938Z,44.09
2018-03-01T09:27:47.041Z,43.52
2018-03-01T09:28:46.895Z,43.80
2018-03-01T09:29:46.866Z,43.62
2018-03-01T09:30:46.880Z,43.62
2018-03-01T09:31:46.811Z,43.71
2018-03-01T09:32:46.791Z,43.52
2018-03-01T09:33:47.341Z,43.71
2018-03-01T09:34:46.743Z,43.05
2018-03-01T09:35:46.773Z,42.96
2018-03-01T09:36:46.694Z,42.96
2018-03-01T09:37:46.673Z,42.69
2018-03-01T09:38:46.703Z,42.01
2018-03-01T09:39:47.334Z,41.92
2018-03-01T09:40:46.643Z,41.94
2018-03-01T09:41:46.592Z,41.18
2018-03-01T09:42:46.552Z,40.80
2018-03-01T09:43:46.574Z,40.24
2018-03-01T09:44:47.336Z,39.84
2018-03-01T09:45:46.550Z,40.31
2018-03-01T09:46:46.477Z,40.59
2018-03-01T09:47:46.496Z,41.44
2018-03-01T09:48:46.430Z,41.92
2018-03-01T09:49:46.395Z,42.39
2018-03-01T09:50:46.902Z,42.30
2018-03-01T09:51:46.341Z,42.11
2018-03-01T09:52:46.323Z,42.11
2018-03-01T09:53:46.301Z,42.67
2018-03-01T09:54:46.271Z,42.30
2018-03-01T09:55:46.300Z,41.92
2018-03-01T09:56:46.220Z,41.54
2018-03-01T09:57:46.235Z,41.18
2018-03-01T09:58:46.216Z,40.99
2018-03-01T09:59:46.148Z,40.61
2018-03-01T10:00:46.128Z,39.67
2018-03-01T10:01:46.182Z,39.01
2018-03-01T10:02:46.116Z,38.73
2018-03-01T10:03:46.101Z,38.73
2018-03-01T10:04:46.035Z,38.65
2018-03-01T10:05:46.013Z,38.35
2018-03-01T10:06:45.986Z,38.35
2018-03-01T10:07:46.398Z,38.07
2018-03-01T10:08:45.978Z,37.88
2018-03-01T10:09:45.919Z,37.90
2018-03-01T10:10:45.946Z,38.18
2018-03-01T10:11:45.872Z,37.23
2018-03-01T10:12:45.852Z,37.14
2018-03-01T10:13:45.832Z,37.42
2018-03-01T10:14:46.796Z,37.35
2018-03-01T10:15:45.911Z,36.78
2018-03-01T10:16:45.764Z,35.83
2018-03-01T10:17:45.819Z,35.93
2018-03-01T10:18:45.715Z,36.02
2018-03-01T10:19:45.701Z,34.99
2018-03-01T10:20:45.736Z,34.51
2018-03-01T10:21:45.661Z,34.44
2018-03-01T10:22:45.640Z,34.06
2018-03-01T10:23:45.618Z,33.68
2018-03-01T10:24:45.598Z,34.15
2018-03-01T10:25:45.627Z,33.77
2018-03-01T10:26:46.376Z,33.58
2018-03-01T10:27:45.906Z,33.01
2018-03-01T10:28:45.553Z,32.45
2018-03-01T10:29:45.498Z,31.79
2018-03-01T10:30:45.481Z,31.69
2018-03-01T10:31:46.350Z,31.69
2018-03-01T10:32:45.438Z,32.17
2018-03-01T10:33:45.468Z,31.98
2018-03-01T10:34:45.404Z,31.88
2018-03-01T10:35:45.389Z,31.79
2018-03-01T10:36:45.372Z,32.18
2018-03-01T10:37:45.395Z,31.61
2018-03-01T10:38:45.375Z,31.42
2018-03-01T10:39:45.848Z,31.42
2018-03-01T10:40:45.292Z,35.87
2018-03-01T10:41:45.280Z,34.63
2018-03-01T10:42:45.256Z,33.12
2018-03-01T10:43:45.299Z,31.99
2018-03-01T10:44:45.222Z,31.33
2018-03-01T10:45:45.853Z,31.23
2018-03-01T10:46:45.182Z,31.04
2018-03-01T10:47:45.194Z,31.04
2018-03-01T10:48:45.203Z,30.40
2018-03-01T10:49:45.129Z,30.49
2018-03-01T10:50:45.854Z,30.40
2018-03-01T10:51:45.100Z,29.73
2018-03-01T10:52:45.073Z,29.16
2018-03-01T10:53:45.109Z,29.45
2018-03-01T10:54:45.036Z,29.18
2018-03-01T10:55:45.402Z,29.08
2018-03-01T10:56:45.007Z,28.99
2018-03-01T10:57:45.059Z,29.18
2018-03-01T10:58:44.968Z,28.80
2018-03-01T10:59:45.005Z,28.52
2018-03-01T11:00:45.856Z,29.18
2018-03-01T11:01:44.918Z,29.45
2018-03-01T11:02:44.902Z,29.35
2018-03-01T11:03:44.880Z,28.78
2018-03-01T11:04:44.907Z,28.80
2018-03-01T11:05:44.906Z,28.50
2018-03-01T11:06:44.839Z,29.08
2018-03-01T11:07:44.899Z,28.59
2018-03-01T11:08:44.813Z,28.89
2018-03-01T11:09:44.784Z,28.78
2018-03-01T11:10:44.925Z,28.80
2018-03-01T11:11:44.751Z,28.80
2018-03-01T11:12:44.731Z,28.33
2018-03-01T11:13:44.720Z,28.23
2018-03-01T11:14:44.707Z,27.85
2018-03-01T11:15:44.773Z,28.15
2018-03-01T11:16:45.365Z,27.20
2018-03-01T11:17:44.746Z,26.54
2018-03-01T11:18:44.632Z,26.73
2018-03-01T11:19:44.626Z,26.73
2018-03-01T11:20:44.639Z,26.53
2018-03-01T11:21:44.589Z,26.90
2018-03-01T11:22:44.923Z,26.90
2018-03-01T11:23:44.599Z,27.28
2018-03-01T11:24:44.532Z,27.47
2018-03-01T11:25:44.515Z,27.28
2018-03-01T11:26:44.507Z,27.28
2018-03-01T11:27:44.529Z,27.56
2018-03-01T11:28:44.506Z,28.31
2018-03-01T11:29:44.453Z,28.23
2018-03-01T11:30:44.433Z,28.33
2018-03-01T11:31:44.415Z,27.76
2018-03-01T11:32:44.408Z,27.28
2018-03-01T11:33:44.439Z,27.19
2018-03-01T11:34:44.383Z,27.28
2018-03-01T11:35:44.448Z,26.64
2018-03-01T11:36:44.338Z,26.35
2018-03-01T11:37:44.424Z,26.35
2018-03-01T11:38:44.416Z,25.68
2018-03-01T11:39:44.298Z,25.68
2018-03-01T11:40:44.273Z,25.97
2018-03-01T11:41:44.256Z,25.42
2018-03-01T11:42:44.240Z,24.84
2018-03-01T11:43:44.265Z,24.74
2018-03-01T11:44:44.256Z,24.84
2018-03-01T11:45:44.188Z,25.12
2018-03-01T11:46:44.173Z,25.12
2018-03-01T11:47:44.168Z,24.75
2018-03-01T11:48:44.142Z,24.47
2018-03-01T11:49:44.177Z,24.76
2018-03-01T11:50:44.119Z,23.72
2018-03-01T11:51:44.878Z,23.61
2018-03-01T11:52:44.077Z,23.61
2018-03-01T11:53:44.065Z,23.71
2018-03-01T11:54:44.092Z,24.19
2018-03-01T11:55:44.046Z,23.91
2018-03-01T11:56:44.045Z,23.16
2018-03-01T11:57:44.778Z,22.41
2018-03-01T11:58:43.985Z,21.94
2018-03-01T11:59:44.008Z,21.66
2018-03-01T12:00:44.004Z,21.66
2018-03-01T12:01:43.942Z,22.21
2018-03-01T12:02:43.927Z,22.78
2018-03-01T12:03:43.918Z,29.16
2018-03-01T12:04:44.872Z,28.48
2018-03-01T12:05:43.925Z,25.06
2018-03-01T12:06:43.871Z,23.25
2018-03-01T12:07:43.861Z,22.60
2018-03-01T12:08:43.840Z,22.58
2018-03-01T12:09:43.831Z,22.58
2018-03-01T12:10:43.859Z,23.05
2018-03-01T12:11:43.801Z,22.86
2018-03-01T12:12:43.781Z,22.86
2018-03-01T12:13:43.776Z,23.05
2018-03-01T12:14:43.759Z,22.77
2018-03-01T12:15:43.778Z,22.76
2018-03-01T12:16:43.725Z,22.77
2018-03-01T12:17:43.749Z,22.77
2018-03-01T12:18:43.696Z,22.77
2018-03-01T12:19:43.691Z,22.57
2018-03-01T12:20:43.718Z,22.77
2018-03-01T12:21:43.658Z,22.58
2018-03-01T12:22:44.386Z,22.96
2018-03-01T12:23:43.624Z,22.58
2018-03-01T12:24:43.609Z,23.44
2018-03-01T12:25:43.645Z,22.96
2018-03-01T12:26:43.578Z,23.52
2018-03-01T12:27:44.383Z,23.63
2018-03-01T12:28:43.548Z,23.24
2018-03-01T12:29:43.533Z,22.77
2018-03-01T12:30:43.575Z,22.40
2018-03-01T12:31:43.508Z,22.21
2018-03-01T12:32:43.489Z,22.21
2018-03-01T12:33:43.499Z,21.74
2018-03-01T12:34:43.460Z,22.49
2018-03-01T12:35:43.502Z,22.60
2018-03-01T12:36:43.430Z,22.50
2018-03-01T12:37:44.389Z,22.77
2018-03-01T12:38:43.400Z,22.40
2018-03-01T12:39:43.395Z,21.64
2018-03-01T12:40:43.423Z,22.30
2018-03-01T12:41:43.361Z,21.92
2018-03-01T12:42:43.449Z,22.11
2018-03-01T12:43:43.341Z,22.30
2018-03-01T12:44:43.319Z,22.49
2018-03-01T12:45:43.340Z,21.44
2018-03-01T12:46:43.285Z,21.44
2018-03-01T12:47:43.361Z,21.63
2018-03-01T12:48:43.258Z,21.73
2018-03-01T12:49:43.242Z,21.63
2018-03-01T12:50:43.269Z,21.62
2018-03-01T12:51:43.226Z,22.28